createdAt,value
2022-10-20T03:03:14.932Z,97.24
2022-10-20T03:05:46.150Z,96.75
2022-10-20T03:08:17.882Z,95.86
2022-10-20T03:10:52.507Z,95.94
2022-10-20T03:18:14.118Z,95.76
2022-10-20T03:24:22.246Z,95.83
2022-10-20T03:27:06.236Z,96.91
2022-10-20T03:29:50.127Z,96.69
2022-10-20T09:28:24.337Z,80.13
2022-10-20T09:30:51.744Z,79.24
2022-10-20T09:33:29.022Z,77.83
2022-10-20T09:36:03.597Z,78.00
2022-10-20T09:38:56.785Z,77.47
2022-10-20T09:41:26.575Z,76.50
2022-10-20T09:44:05.331Z,76.38
2022-10-20T09:46:40.025Z,77.15
2022-10-20T09:49:07.945Z,72.84
2022-10-20T09:51:34.695Z,72.26
2022-10-20T09:54:03.792Z,75.61
2022-10-20T09:56:42.604Z,77.65
2022-10-20T09:59:29.307Z,75.96
2022-10-20T10:02:15.604Z,74.13
2022-10-20T10:04:55.489Z,75.62
2022-10-20T10:07:30.446Z,71.89
2022-10-20T10:10:05.712Z,72.13
2022-10-20T10:12:38.281Z,69.48
2022-10-20T10:15:21.716Z,72.41
2022-10-20T10:18:01.500Z,71.32
2022-10-20T10:20:48.758Z,74.25
2022-10-20T10:23:48.943Z,74.38
2022-10-20T10:26:43.736Z,72.15
2022-10-20T10:29:29.522Z,71.50
2022-10-20T10:32:04.672Z,70.87
2022-10-20T10:34:51.839Z,74.08
2022-10-20T10:39:46.493Z,70.79
2022-10-20T10:42:48.218Z,73.97
2022-10-20T10:45:49.663Z,72.82
2022-10-20T10:48:34.427Z,73.12
2022-10-20T10:51:05.842Z,75.00
2022-10-20T10:53:59.544Z,67.58
2022-10-20T10:56:47.598Z,66.64
2022-10-20T11:00:14.492Z,65.30
2022-10-20T11:02:49.290Z,67.94
2022-10-20T11:05:56.816Z,65.52
2022-10-20T11:09:24.219Z,71.54
2022-10-20T11:12:18.856Z,67.91
2022-10-20T11:15:16.454Z,68.58
2022-10-20T11:18:34.291Z,65.74
2022-10-20T11:21:39.730Z,67.94
2022-10-20T11:24:38.197Z,64.56
2022-10-20T11:27:10.083Z,63.61
2022-10-20T11:30:10.165Z,64.10
2022-10-20T11:32:52.748Z,65.57
2022-10-20T11:40:07.707Z,65.73
2022-10-20T11:43:01.611Z,63.53
2022-10-20T11:45:45.319Z,67.26
2022-10-20T11:48:23.857Z,66.07
2022-10-20T11:51:08.715Z,66.27
2022-10-20T11:54:00.936Z,63.49
2022-10-20T11:57:13.513Z,63.58
2022-10-20T12:00:04.846Z,59.23
2022-10-20T12:03:04.684Z,59.32
2022-10-20T12:06:23.096Z,59.34
2022-10-20T12:09:41.851Z,62.24
2022-10-20T12:16:36.877Z,64.04
2022-10-20T12:19:26.417Z,64.05
2022-10-20T12:29:42.404Z,64.38
2022-10-20T12:32:36.815Z,58.99
2022-10-20T12:35:32.112Z,62.36
2022-10-20T12:38:36.729Z,62.92
2022-10-20T12:41:30.672Z,57.76
2022-10-20T12:47:55.625Z,63.06
2022-10-20T12:50:46.177Z,62.12
2022-10-20T13:00:33.096Z,59.82
2022-10-20T13:03:51.303Z,53.83
2022-10-20T13:07:13.501Z,58.29
2022-10-20T13:09:59.015Z,57.40
2022-10-20T13:12:40.004Z,61.39
2022-10-20T13:15:14.058Z,56.58
2022-10-20T13:18:07.916Z,59.71
2022-10-20T13:21:15.273Z,59.93
2022-10-20T13:24:44.915Z,56.01
2022-10-20T13:27:16.455Z,57.31
2022-10-20T13:30:13.402Z,54.00
2022-10-20T13:36:44.658Z,55.99
2022-10-20T13:39:29.453Z,55.45
2022-10-20T13:42:56.014Z,60.49
2022-10-20T13:45:55.302Z,57.79
2022-10-20T14:07:53.408Z,62.03
2022-10-20T14:25:50.279Z,62.05
2022-10-20T14:28:19.851Z,63.05
2022-10-20T14:30:55.616Z,66.38
2022-10-20T14:33:32.905Z,63.65
2022-10-20T14:36:02.760Z,64.15
2022-10-20T14:38:35.615Z,59.91
2022-10-20T14:41:05.215Z,59.77
2022-10-20T14:43:47.593Z,60.62
2022-10-20T14:46:35.820Z,62.08
2022-10-20T14:49:52.298Z,61.69
2022-10-20T14:55:40.808Z,60.71
2022-10-20T14:58:35.015Z,64.16
2022-10-20T15:01:26.365Z,64.91
2022-10-20T15:04:23.701Z,64.53
2022-10-20T15:07:22.577Z,63.36
2022-10-20T15:10:18.328Z,66.46
2022-10-20T15:13:28.016Z,63.31
2022-10-20T15:23:38.166Z,64.55
2022-10-20T15:39:04.610Z,68.82
2022-10-20T15:41:36.096Z,67.84
2022-10-20T15:44:36.961Z,68.66
2022-10-20T15:47:23.458Z,70.74
2022-10-20T15:49:50.444Z,68.46
2022-10-20T16:03:58.233Z,72.58
2022-10-20T16:07:03.043Z,74.35
2022-10-20T16:09:30.571Z,72.81
2022-10-20T16:12:36.854Z,72.52
2022-10-20T16:15:05.061Z,73.06
2022-10-20T16:17:35.737Z,74.98
2022-10-20T16:23:34.547Z,74.02
2022-10-20T16:36:23.195Z,76.43
2022-10-20T16:39:13.492Z,77.65
2022-10-20T16:42:06.611Z,75.02
2022-10-20T16:44:35.847Z,77.68
2022-10-20T16:51:11.433Z,76.42
2022-10-20T16:54:20.896Z,75.33
2022-10-20T16:57:00.593Z,77.77
2022-10-20T18:02:31.647Z,80.25
2022-10-20T18:28:09.117Z,80.74
2022-10-20T18:31:29.168Z,81.43
2022-10-20T21:28:28.173Z,85.02
2022-10-20T21:31:18.183Z,86.21
2022-10-20T21:33:59.187Z,84.92
2022-10-20T21:36:31.502Z,83.04
2022-10-20T21:39:32.417Z,84.62
2022-10-20T21:42:19.596Z,84.05
2022-10-20T21:44:48.401Z,83.28
2022-10-20T21:47:21.427Z,83.63
2022-10-20T21:49:48.012Z,83.12
2022-10-20T21:52:14.541Z,82.59
2022-10-20T21:54:41.076Z,82.83
2022-10-20T21:57:07.557Z,83.59
2022-10-20T21:59:34.115Z,83.66
2022-10-20T22:02:02.144Z,82.47
2022-10-20T22:04:30.012Z,81.38
2022-10-20T22:11:08.229Z,78.78
2022-10-20T22:13:35.206Z,79.81
2022-10-20T22:16:05.613Z,81.29
2022-10-20T22:18:32.437Z,77.74
2022-10-20T22:21:09.749Z,80.26
2022-10-20T22:23:39.277Z,81.08
2022-10-20T22:26:09.011Z,81.10
2022-10-20T22:28:35.979Z,82.11
2022-10-20T22:31:03.214Z,81.40
2022-10-20T22:33:36.400Z,84.41
2022-10-20T22:36:04.753Z,81.92
2022-10-20T22:38:31.286Z,84.72
2022-10-20T22:41:07.151Z,85.23
2022-10-20T22:43:39.095Z,87.01
2022-10-20T22:46:06.126Z,88.65
2022-10-20T22:48:32.979Z,90.79
2022-10-20T22:51:00.554Z,92.16
2022-10-20T22:53:27.083Z,93.67
2022-10-20T22:55:54.574Z,93.59
2022-10-20T22:58:24.373Z,95.07
2022-10-20T23:00:51.208Z,96.17
2022-10-20T23:03:17.727Z,96.97
2022-10-20T23:05:44.286Z,97.82
2022-10-20T23:08:10.873Z,97.58
2022-10-20T23:10:37.542Z,99.66
2022-10-20T23:13:04.409Z,98.73
2022-10-20T23:15:31.055Z,98.91
2022-10-20T23:17:57.762Z,98.08
2022-10-20T23:20:24.421Z,97.92
2022-10-20T23:22:50.989Z,98.53
2022-10-20T23:25:17.638Z,96.84
2022-10-20T23:27:44.275Z,96.71
2022-10-20T23:30:11.017Z,96.33
2022-10-20T23:32:37.458Z,97.90
2022-10-20T23:35:04.649Z,99.59
2022-10-20T23:37:31.203Z,100.00
2022-10-20T23:39:57.710Z,98.72
2022-10-20T23:42:24.231Z,97.05
2022-10-20T23:44:50.860Z,97.28
2022-10-20T23:47:17.514Z,98.71
2022-10-20T23:49:44.256Z,99.91
2022-10-20T23:52:10.712Z,99.08
2022-10-20T23:54:37.464Z,99.90
2022-10-20T23:57:04.272Z,100.00
2022-10-20T23:59:59.942Z,100.00
